Time;durP1;ratioP1;P1;durP2;ratioP2;P2;SDS_P1;SDS_P2;PMS_P1;PMS_P2;Temp;Humidity;BMP_temperature;BMP_pressure;BME280_temperature;BME280_humidity;BME280_pressure;Samples;Min_cycle;Max_cycle;Signal;HPM_P1;HPM_P2
2022/12/28 00:00:52;;;;;;;16.38;5.10;;;5.50;99.90;;;;;;4993317;28;20073;-68
2022/12/28 00:03:17;;;;;;;11.05;5.53;;;5.60;99.90;;;;;;4993753;28;20027;-68
2022/12/28 00:05:43;;;;;;;11.13;5.40;;;5.70;99.90;;;;;;4994802;28;20022;-68
2022/12/28 00:08:08;;;;;;;12.63;5.25;;;5.70;99.90;;;;;;4993041;28;20065;-68
2022/12/28 00:10:34;;;;;;;13.98;5.65;;;5.70;99.90;;;;;;4994209;28;20034;-68
2022/12/28 00:12:59;;;;;;;14.05;4.72;;;5.70;99.90;;;;;;4993541;28;20080;-68
2022/12/28 00:15:25;;;;;;;14.07;5.30;;;5.70;99.90;;;;;;4992703;28;20027;-69
2022/12/28 00:17:50;;;;;;;9.93;5.28;;;5.70;99.90;;;;;;4992885;28;20022;-68
2022/12/28 00:20:16;;;;;;;10.77;4.72;;;5.80;99.90;;;;;;4994013;28;20031;-68
2022/12/28 00:22:42;;;;;;;11.02;5.22;;;5.80;99.90;;;;;;4993105;28;20081;-68
2022/12/28 00:25:08;;;;;;;14.15;5.03;;;5.80;99.90;;;;;;4992815;28;20118;-68
2022/12/28 00:27:44;;;;;;;17.63;4.82;;;5.70;99.90;;;;;;4992915;28;20038;-68
2022/12/28 00:30:10;;;;;;;10.35;4.93;;;5.70;99.90;;;;;;4993870;28;20062;-69
2022/12/28 00:32:36;;;;;;;12.43;4.88;;;5.70;99.90;;;;;;4992578;28;20029;-68
2022/12/28 00:35:02;;;;;;;10.68;5.05;;;5.70;99.90;;;;;;4992556;28;20022;-68
2022/12/28 00:37:27;;;;;;;10.75;4.60;;;5.80;99.90;;;;;;4993874;28;20116;-68
2022/12/28 00:39:53;;;;;;;8.35;4.30;;;5.80;99.90;;;;;;4992395;28;20068;-68
2022/12/28 00:42:18;;;;;;;10.27;4.20;;;5.70;99.90;;;;;;4992691;28;20109;-69
2022/12/28 00:44:44;;;;;;;12.00;4.63;;;5.70;99.90;;;;;;4993839;28;20023;-69
2022/12/28 00:47:09;;;;;;;7.20;3.50;;;5.70;99.90;;;;;;4992878;28;20033;-69
2022/12/28 00:49:35;;;;;;;7.07;3.40;;;5.70;99.90;;;;;;4993844;28;20025;-69
2022/12/28 00:52:00;;;;;;;9.63;4.35;;;5.70;99.90;;;;;;4992513;28;20125;-69
2022/12/28 00:54:26;;;;;;;10.15;3.67;;;5.70;99.90;;;;;;4994026;28;20105;-69
2022/12/28 00:56:51;;;;;;;8.35;3.90;;;5.70;99.90;;;;;;4992352;28;20034;-69
2022/12/28 00:59:17;;;;;;;13.38;4.65;;;5.80;99.90;;;;;;4992598;28;20056;-69
2022/12/28 01:01:42;;;;;;;10.82;4.90;;;5.70;99.90;;;;;;4992959;28;20122;-69
2022/12/28 01:04:08;;;;;;;14.15;5.15;;;5.50;99.90;;;;;;4993847;28;20030;-69
2022/12/28 01:06:33;;;;;;;11.20;4.97;;;5.60;99.90;;;;;;4993436;28;20109;-69
2022/12/28 01:08:59;;;;;;;12.25;5.30;;;5.60;99.90;;;;;;4992807;28;20061;-69
2022/12/28 01:11:27;;;;;;;13.18;5.72;;;5.70;99.90;;;;;;4993785;28;20057;-69
2022/12/28 01:13:54;;;;;;;21.60;6.03;;;5.70;99.90;;;;;;4993785;28;20062;-69
2022/12/28 01:16:28;;;;;;;12.63;5.30;;;5.60;99.90;;;;;;4993311;28;20061;-69
2022/12/28 01:18:57;;;;;;;12.63;5.32;;;5.50;99.90;;;;;;4993496;28;20022;-69
2022/12/28 01:21:25;;;;;;;14.90;6.50;;;5.60;99.90;;;;;;4992102;28;20034;-69
2022/12/28 01:23:54;;;;;;;17.65;6.32;;;5.70;99.90;;;;;;4993107;28;20053;-69
2022/12/28 01:26:19;;;;;;;16.63;6.43;;;5.50;99.90;;;;;;4996507;28;20034;-69
2022/12/28 01:28:45;;;;;;;12.75;5.75;;;5.60;99.90;;;;;;4996277;28;20026;-69
2022/12/28 01:31:13;;;;;;;10.55;5.20;;;5.70;99.90;;;;;;4996021;28;20030;-69
2022/12/28 01:33:39;;;;;;;12.35;5.28;;;5.70;99.90;;;;;;4995630;28;20034;-69
2022/12/28 01:36:19;;;;;;;13.30;5.43;;;5.80;99.90;;;;;;4996851;28;20030;-69
2022/12/28 01:38:45;;;;;;;7.95;4.38;;;5.80;99.90;;;;;;4997129;28;20023;-69
2022/12/28 01:41:14;;;;;;;15.77;6.53;;;5.80;99.90;;;;;;4995651;28;20022;-69
2022/12/28 01:43:43;;;;;;;13.02;5.72;;;5.70;99.90;;;;;;4995601;28;20022;-69
2022/12/28 01:46:17;;;;;;;9.57;5.32;;;5.70;99.90;;;;;;4996727;28;20030;-69
2022/12/28 01:48:59;;;;;;;14.32;6.03;;;5.50;99.90;;;;;;4996640;28;20034;-69
2022/12/28 01:51:28;;;;;;;12.27;5.85;;;5.40;99.90;;;;;;4995444;28;20027;-69
2022/12/28 01:53:55;;;;;;;14.30;6.40;;;5.50;99.90;;;;;;4995297;28;20113;-69
2022/12/28 01:56:21;;;;;;;12.75;5.82;;;5.60;99.90;;;;;;4995426;28;20033;-69
2022/12/28 01:58:48;;;;;;;13.00;5.57;;;5.60;99.90;;;;;;4996480;28;20421;-69
2022/12/28 02:01:13;;;;;;;14.02;6.38;;;5.60;99.90;;;;;;4996429;28;20030;-68
2022/12/28 02:03:39;;;;;;;13.23;6.88;;;5.50;99.90;;;;;;4995099;28;20026;-69
2022/12/28 02:06:07;;;;;;;12.98;5.90;;;5.40;99.90;;;;;;4995357;28;20023;-69
2022/12/28 02:08:42;;;;;;;24.67;6.72;;;5.50;99.90;;;;;;4996389;28;20030;-69
2022/12/28 02:11:12;;;;;;;16.00;6.50;;;5.40;99.90;;;;;;4994987;28;20064;-69
2022/12/28 02:13:38;;;;;;;13.43;7.07;;;5.30;99.90;;;;;;4995233;28;20031;-69
2022/12/28 02:16:04;;;;;;;17.48;6.95;;;5.30;99.90;;;;;;4995172;28;20030;-69
2022/12/28 02:18:30;;;;;;;10.93;6.80;;;5.30;99.90;;;;;;4996146;28;20098;-69
2022/12/28 02:21:08;;;;;;;12.90;6.80;;;5.30;99.90;;;;;;4994794;28;20026;-69
2022/12/28 02:24:21;;;;;;;13.23;6.95;;;5.30;99.90;;;;;;4994849;28;20561;-68
2022/12/28 02:27:04;;;;;;;15.45;6.40;;;5.30;99.90;;;;;;4995182;28;20031;-68
2022/12/28 02:29:49;;;;;;;17.77;7.30;;;5.30;99.90;;;;;;4994720;28;20038;-68
2022/12/28 02:32:29;;;;;;;13.45;7.07;;;5.50;99.90;;;;;;4996192;28;20030;-68
2022/12/28 02:35:09;;;;;;;17.88;7.47;;;5.50;99.90;;;;;;4993866;28;20189;-68
2022/12/28 02:37:50;;;;;;;14.40;7.28;;;5.50;99.90;;;;;;4994430;28;20032;-68
2022/12/28 02:40:22;;;;;;;12.47;6.67;;;5.50;99.90;;;;;;4996048;28;20018;-68
2022/12/28 02:42:48;;;;;;;12.63;6.07;;;5.40;99.90;;;;;;4995699;28;20292;-69
2022/12/28 02:51:30;;;;;;;12.57;6.68;;;5.70;99.90;;;;;;4995834;28;20037;-68
2022/12/28 02:57:56;;;;;;;12.90;5.97;;;5.70;99.90;;;;;;4973918;28;20042;-69
2022/12/28 03:00:28;;;;;;;14.90;6.88;;;5.70;99.90;;;;;;4957712;28;20059;-69
2022/12/28 03:03:14;;;;;;;16.20;6.18;;;5.70;99.90;;;;;;4974387;28;20087;-69
2022/12/28 03:09:15;;;;;;;15.43;7.22;;;5.70;99.90;;;;;;4973997;28;20038;-69
2022/12/28 03:11:52;;;;;;;13.85;7.00;;;5.70;99.90;;;;;;4957429;28;20038;-69
2022/12/28 03:14:27;;;;;;;18.33;7.43;;;5.70;99.90;;;;;;4957390;28;20038;-69
2022/12/28 03:31:06;;;;;;;15.02;6.97;;;5.60;99.90;;;;;;4935502;29;20051;-69
2022/12/28 03:33:41;;;;;;;16.73;7.15;;;5.70;99.90;;;;;;4934903;29;20044;-69
2022/12/28 03:36:14;;;;;;;11.35;7.22;;;5.80;99.90;;;;;;4934840;29;20027;-69
2022/12/28 03:39:02;;;;;;;13.60;6.15;;;5.70;99.90;;;;;;4918815;29;20023;-69
2022/12/28 03:41:37;;;;;;;11.85;6.50;;;5.70;99.90;;;;;;4919530;29;20043;-69
2022/12/28 03:44:15;;;;;;;11.85;6.28;;;5.70;99.90;;;;;;4918730;29;20038;-69
2022/12/28 03:47:15;;;;;;;14.23;6.55;;;5.60;99.90;;;;;;4918440;29;20036;-69
2022/12/28 03:49:41;;;;;;;9.68;5.80;;;5.60;99.90;;;;;;4915943;29;20176;-69
2022/12/28 03:52:08;;;;;;;12.05;6.28;;;5.70;99.90;;;;;;4899620;29;20036;-69
2022/12/28 03:54:34;;;;;;;15.25;6.28;;;5.60;99.90;;;;;;4915578;29;20052;-69
2022/12/28 03:57:00;;;;;;;12.05;6.78;;;5.40;99.90;;;;;;4899475;29;20020;-69
2022/12/28 03:59:25;;;;;;;16.30;6.68;;;5.40;99.90;;;;;;4916034;29;20140;-69
2022/12/28 04:01:51;;;;;;;10.60;5.97;;;5.40;99.90;;;;;;4937463;29;20062;-69
2022/12/28 04:04:16;;;;;;;14.13;6.38;;;5.40;99.90;;;;;;4937497;29;20035;-69
2022/12/28 04:06:43;;;;;;;9.13;5.93;;;5.30;99.90;;;;;;4953592;28;20046;-69
2022/12/28 04:09:08;;;;;;;14.55;6.13;;;5.40;99.90;;;;;;4938046;29;20121;-69
2022/12/28 04:11:34;;;;;;;21.52;7.85;;;5.50;99.90;;;;;;4937281;28;20131;-69
2022/12/28 04:14:02;;;;;;;15.98;6.07;;;5.50;99.90;;;;;;4953435;29;20039;-69
2022/12/28 04:16:28;;;;;;;13.20;5.72;;;5.70;99.90;;;;;;4936974;29;20134;-69
2022/12/28 04:18:53;;;;;;;11.45;6.13;;;5.90;99.90;;;;;;4953567;29;20231;-69
2022/12/28 04:21:19;;;;;;;10.30;5.95;;;5.90;99.90;;;;;;4953251;29;20115;-69
2022/12/28 04:23:45;;;;;;;11.15;5.43;;;5.90;99.90;;;;;;4953257;29;20033;-69
2022/12/28 04:26:13;;;;;;;10.07;5.80;;;5.90;99.90;;;;;;4974818;28;20062;-69
2022/12/28 04:28:39;;;;;;;16.45;6.82;;;5.80;99.90;;;;;;4993917;28;20076;-69
2022/12/28 04:31:06;;;;;;;10.95;5.30;;;5.90;99.90;;;;;;4992820;28;20061;-69
2022/12/28 04:33:36;;;;;;;11.45;6.93;;;5.90;99.90;;;;;;4992458;28;20026;-69
2022/12/28 04:36:14;;;;;;;16.30;6.75;;;5.70;99.90;;;;;;4992488;28;20073;-69
2022/12/28 04:38:40;;;;;;;14.07;6.25;;;5.70;99.90;;;;;;4992409;28;20022;-69
2022/12/28 04:41:07;;;;;;;13.88;6.60;;;5.70;99.90;;;;;;4993320;28;20019;-69
2022/12/28 04:43:33;;;;;;;13.30;6.57;;;5.90;99.90;;;;;;4994211;28;20029;-69
2022/12/28 04:46:01;;;;;;;18.38;6.22;;;5.80;99.90;;;;;;4992970;28;20023;-69
2022/12/28 04:48:27;;;;;;;12.90;6.45;;;5.80;99.90;;;;;;4993638;28;20030;-69
2022/12/28 04:50:54;;;;;;;13.85;5.90;;;5.80;99.90;;;;;;4993686;28;20031;-69
2022/12/28 04:53:20;;;;;;;14.20;6.70;;;5.80;99.90;;;;;;4992464;28;20030;-69
2022/12/28 04:55:46;;;;;;;11.88;6.40;;;5.80;99.90;;;;;;4992643;28;20545;-69
2022/12/28 04:58:11;;;;;;;14.95;6.43;;;5.90;99.90;;;;;;4993842;28;20106;-69
2022/12/28 05:00:37;;;;;;;14.18;5.90;;;6.00;99.90;;;;;;4996276;28;20019;-69
2022/12/28 05:03:03;;;;;;;11.60;6.07;;;6.10;99.90;;;;;;4996251;28;20031;-69
2022/12/28 05:05:28;;;;;;;12.30;6.60;;;6.20;99.90;;;;;;4996127;28;20030;-69
2022/12/28 05:07:54;;;;;;;11.68;6.88;;;6.20;99.90;;;;;;4997741;28;20022;-69
2022/12/28 05:10:20;;;;;;;13.60;6.40;;;6.10;99.90;;;;;;4996162;28;20026;-69
2022/12/28 05:12:46;;;;;;;15.07;6.65;;;6.10;99.90;;;;;;4997437;28;20403;-69
2022/12/28 05:15:11;;;;;;;12.45;7.10;;;6.10;99.90;;;;;;4997231;28;20041;-69
2022/12/28 05:17:37;;;;;;;11.73;6.57;;;6.20;99.90;;;;;;4997219;28;20465;-69
2022/12/28 05:20:03;;;;;;;13.98;6.38;;;6.20;99.90;;;;;;4995948;28;20089;-69
2022/12/28 05:22:29;;;;;;;14.52;7.00;;;6.10;99.90;;;;;;4995889;28;20022;-69
2022/12/28 05:24:55;;;;;;;12.57;6.68;;;6.20;99.90;;;;;;4996215;28;20080;-69
2022/12/28 05:27:21;;;;;;;11.93;6.68;;;6.20;99.90;;;;;;4995991;28;20113;-69
2022/12/28 05:29:46;;;;;;;15.00;7.63;;;6.10;99.90;;;;;;4997305;28;20026;-69
2022/12/28 05:32:12;;;;;;;18.98;7.40;;;6.10;99.90;;;;;;4996118;28;20022;-69
2022/12/28 05:34:37;;;;;;;13.98;7.07;;;6.20;99.90;;;;;;4995729;28;20022;-69
2022/12/28 05:37:03;;;;;;;17.42;9.18;;;6.10;99.90;;;;;;4995931;28;20097;-70
2022/12/28 05:39:28;;;;;;;13.23;6.97;;;6.10;99.90;;;;;;4995676;28;20018;-70
2022/12/28 05:41:58;;;;;;;17.90;8.70;;;6.10;99.90;;;;;;4996506;28;20452;-70
2022/12/28 05:44:25;;;;;;;15.05;7.88;;;5.90;99.90;;;;;;4996738;28;20034;-70
2022/12/28 05:46:50;;;;;;;17.10;8.10;;;5.90;99.90;;;;;;4996800;28;20030;-70
2022/12/28 05:49:16;;;;;;;16.63;8.00;;;6.00;99.90;;;;;;4996885;28;20037;-70
2022/12/28 05:51:41;;;;;;;17.95;8.85;;;6.00;99.90;;;;;;4996234;28;20053;-70
2022/12/28 05:54:07;;;;;;;16.23;7.65;;;6.10;99.90;;;;;;4995514;28;20033;-70
2022/12/28 05:56:33;;;;;;;14.65;8.02;;;6.10;99.90;;;;;;4995553;28;20022;-69
2022/12/28 05:59:01;;;;;;;13.23;7.40;;;6.10;99.90;;;;;;4995303;28;20026;-69
2022/12/28 06:01:29;;;;;;;17.30;8.32;;;6.10;99.90;;;;;;4995289;28;20023;-70
2022/12/28 06:04:04;;;;;;;19.45;8.43;;;6.10;99.90;;;;;;4996518;28;20029;-70
2022/12/28 06:06:31;;;;;;;18.67;9.30;;;6.00;99.90;;;;;;4996595;28;20096;-70
2022/12/28 06:08:56;;;;;;;14.05;7.18;;;6.10;99.90;;;;;;4995090;28;20477;-70
2022/12/28 06:11:25;;;;;;;18.00;8.00;;;6.10;99.90;;;;;;4995271;28;20026;-70
2022/12/28 06:13:51;;;;;;;16.85;8.25;;;6.10;99.90;;;;;;4994996;28;20108;-70
2022/12/28 06:16:19;;;;;;;18.33;8.60;;;6.00;99.90;;;;;;4996505;28;20034;-70
2022/12/28 06:18:45;;;;;;;17.73;8.77;;;6.10;99.90;;;;;;4994948;28;20138;-70
2022/12/28 06:21:13;;;;;;;16.25;8.45;;;6.10;99.90;;;;;;4994865;28;20054;-70
2022/12/28 06:23:40;;;;;;;17.60;8.13;;;6.00;99.90;;;;;;4994953;28;20121;-70
2022/12/28 06:26:06;;;;;;;18.02;7.53;;;6.10;99.90;;;;;;4994900;28;20026;-70
2022/12/28 06:28:32;;;;;;;15.90;7.30;;;6.10;99.90;;;;;;4995556;28;20030;-70
2022/12/28 06:31:07;;;;;;;14.07;8.73;;;6.10;99.90;;;;;;4994779;28;20033;-70
2022/12/28 06:33:33;;;;;;;16.75;7.30;;;6.20;99.90;;;;;;4995173;28;20034;-70
2022/12/28 06:35:59;;;;;;;13.50;7.47;;;6.20;99.90;;;;;;4994500;28;20050;-69
2022/12/28 06:38:26;;;;;;;16.88;8.15;;;6.20;99.90;;;;;;4994593;28;20092;-69
2022/12/28 06:40:52;;;;;;;14.68;7.95;;;6.20;99.90;;;;;;4994649;28;20027;-69
2022/12/28 06:43:17;;;;;;;14.57;7.70;;;6.10;99.90;;;;;;4996239;28;20100;-69
2022/12/28 06:45:52;;;;;;;14.25;7.68;;;6.20;99.90;;;;;;4995737;28;20241;-70
2022/12/28 06:48:18;;;;;;;15.13;7.97;;;6.20;99.90;;;;;;4994527;28;20023;-70
2022/12/28 06:50:43;;;;;;;14.60;7.97;;;6.20;99.90;;;;;;4994634;28;20077;-70
2022/12/28 06:53:08;;;;;;;15.25;7.78;;;6.20;99.90;;;;;;4994592;28;20030;-70
2022/12/28 06:55:34;;;;;;;14.10;7.35;;;6.20;99.90;;;;;;4994662;28;20445;-69
2022/12/28 06:57:59;;;;;;;13.77;8.48;;;6.10;99.90;;;;;;4994872;28;20027;-69
2022/12/28 07:00:25;;;;;;;14.38;7.78;;;6.10;99.90;;;;;;4994549;28;20057;-69
2022/12/28 07:02:56;;;;;;;16.50;8.00;;;6.00;99.90;;;;;;4994379;28;20023;-69
2022/12/28 07:05:22;;;;;;;11.17;7.37;;;6.00;99.90;;;;;;4995678;28;20038;-69
2022/12/28 07:07:47;;;;;;;14.27;8.05;;;6.10;99.90;;;;;;4994093;28;20265;-69
2022/12/28 07:10:13;;;;;;;16.45;7.30;;;6.10;99.90;;;;;;4993951;28;20030;-69
2022/12/28 07:12:38;;;;;;;13.27;7.45;;;6.10;99.90;;;;;;4995363;28;20556;-69
2022/12/28 07:15:04;;;;;;;13.20;7.35;;;6.10;99.90;;;;;;4993673;28;20037;-69
2022/12/28 07:17:30;;;;;;;13.07;7.68;;;6.20;99.90;;;;;;4994221;28;20023;-69
2022/12/28 07:19:55;;;;;;;16.58;7.63;;;6.20;99.90;;;;;;4994054;28;20073;-69
2022/12/28 07:22:21;;;;;;;13.27;7.70;;;6.30;99.90;;;;;;4994330;28;20073;-69
2022/12/28 07:24:46;;;;;;;14.13;7.57;;;6.20;99.90;;;;;;4995047;28;20034;-69
2022/12/28 07:27:12;;;;;;;15.43;6.70;;;6.10;99.90;;;;;;4994803;28;20041;-69
2022/12/28 07:29:37;;;;;;;16.70;7.30;;;6.20;99.90;;;;;;4993543;28;20022;-69
2022/12/28 07:32:03;;;;;;;11.80;6.80;;;6.30;99.90;;;;;;4994455;28;20030;-69
2022/12/28 07:34:28;;;;;;;13.85;7.03;;;6.30;99.90;;;;;;4994929;28;20027;-69
2022/12/28 07:36:54;;;;;;;17.13;6.70;;;6.30;99.90;;;;;;4993270;28;20019;-69
2022/12/28 07:39:19;;;;;;;13.27;6.60;;;6.30;99.90;;;;;;4993481;28;20026;-69
2022/12/28 07:41:45;;;;;;;17.00;7.05;;;6.40;99.90;;;;;;4994647;28;20018;-69
2022/12/28 07:44:11;;;;;;;13.10;7.30;;;6.30;99.90;;;;;;4994501;28;20034;-69
2022/12/28 07:46:37;;;;;;;13.07;6.97;;;6.40;99.90;;;;;;4993184;28;20045;-69
2022/12/28 07:49:03;;;;;;;8.98;5.68;;;6.50;99.90;;;;;;4993223;28;20035;-69
2022/12/28 07:51:31;;;;;;;12.48;5.60;;;6.50;99.90;;;;;;4993221;28;20034;-69
2022/12/28 07:53:58;;;;;;;12.00;5.32;;;6.50;99.90;;;;;;4993228;28;20485;-69
2022/12/28 07:56:25;;;;;;;13.70;6.47;;;6.60;99.90;;;;;;4993482;28;20027;-69
2022/12/28 07:58:53;;;;;;;12.32;5.70;;;6.60;99.90;;;;;;4994294;28;20050;-69
2022/12/28 08:01:20;;;;;;;11.85;6.00;;;6.60;99.90;;;;;;4994224;28;20022;-69
2022/12/28 08:03:46;;;;;;;15.40;6.55;;;6.70;99.90;;;;;;4993025;28;20063;-69
2022/12/28 08:06:15;;;;;;;10.38;5.75;;;6.70;99.90;;;;;;4994234;28;20026;-69
2022/12/28 08:08:43;;;;;;;12.45;5.40;;;6.60;99.90;;;;;;4992943;28;20505;-69
2022/12/28 08:11:12;;;;;;;11.15;5.47;;;6.70;99.90;;;;;;4994563;28;20034;-69
2022/12/28 08:13:39;;;;;;;10.57;5.00;;;6.80;99.90;;;;;;4993013;28;20026;-69
2022/12/28 08:16:06;;;;;;;15.20;5.20;;;6.70;99.90;;;;;;4993042;28;20057;-69
2022/12/28 08:18:32;;;;;;;8.52;5.18;;;6.80;99.90;;;;;;4994017;28;20023;-69
2022/12/28 08:21:02;;;;;;;10.10;5.70;;;6.80;99.90;;;;;;4992762;28;20022;-69
2022/12/28 08:23:29;;;;;;;12.52;5.75;;;6.80;99.90;;;;;;4992775;28;20033;-70
2022/12/28 08:25:55;;;;;;;9.05;4.78;;;6.80;99.90;;;;;;4993147;28;20026;-69
2022/12/28 08:28:21;;;;;;;9.70;5.10;;;6.80;99.90;;;;;;4992764;28;20030;-69
2022/12/28 08:30:46;;;;;;;12.90;5.60;;;6.80;99.90;;;;;;4993991;28;20026;-69
2022/12/28 08:33:12;;;;;;;10.38;4.72;;;6.80;99.90;;;;;;4991708;28;20034;-69
2022/12/28 08:35:37;;;;;;;10.07;4.72;;;6.80;99.90;;;;;;4994083;28;20041;-69
2022/12/28 08:38:03;;;;;;;8.25;4.57;;;6.70;99.90;;;;;;4992655;28;20022;-69
2022/12/28 08:40:29;;;;;;;16.83;5.88;;;6.70;99.90;;;;;;4993699;28;20034;-69
2022/12/28 08:42:58;;;;;;;10.10;5.15;;;6.70;99.90;;;;;;4994059;28;20026;-69
2022/12/28 08:45:24;;;;;;;8.18;5.15;;;6.60;99.90;;;;;;4992369;28;20053;-69
2022/12/28 08:47:50;;;;;;;13.35;5.13;;;6.70;99.90;;;;;;4993862;28;20421;-69
2022/12/28 08:50:16;;;;;;;10.27;5.47;;;6.70;99.90;;;;;;4992611;28;20035;-69
2022/12/28 08:52:41;;;;;;;8.88;4.32;;;6.80;99.90;;;;;;4993949;28;20041;-69
2022/12/28 08:55:07;;;;;;;10.88;4.68;;;6.80;99.90;;;;;;4992671;28;20057;-69
2022/12/28 08:57:33;;;;;;;6.15;4.05;;;6.80;99.90;;;;;;4992512;28;20033;-69
2022/12/28 08:59:58;;;;;;;9.52;4.90;;;6.90;99.90;;;;;;4992353;28;20029;-69
2022/12/28 09:02:24;;;;;;;6.60;3.95;;;7.00;99.90;;;;;;4992538;28;20069;-70
2022/12/28 09:04:49;;;;;;;14.35;5.13;;;7.00;99.90;;;;;;4992146;28;20034;-70
2022/12/28 09:07:15;;;;;;;8.45;4.40;;;7.00;99.90;;;;;;4992326;28;20088;-70
2022/12/28 09:09:40;;;;;;;9.48;4.22;;;7.00;99.90;;;;;;4992282;28;20124;-70
2022/12/28 09:12:06;;;;;;;7.97;4.15;;;6.90;99.90;;;;;;4991810;28;20031;-70
2022/12/28 09:14:32;;;;;;;8.27;3.90;;;7.00;99.90;;;;;;4992855;28;20042;-70
2022/12/28 09:16:58;;;;;;;11.93;3.95;;;6.90;99.90;;;;;;4992147;28;20034;-70
2022/12/28 09:19:23;;;;;;;11.02;4.40;;;6.90;99.90;;;;;;4993198;28;20081;-70
2022/12/28 09:21:51;;;;;;;6.43;3.92;;;7.00;99.90;;;;;;4992082;28;20022;-69
2022/12/28 09:24:17;;;;;;;8.30;4.22;;;7.00;99.90;;;;;;4991970;28;20088;-70
2022/12/28 09:26:43;;;;;;;11.13;3.40;;;7.10;99.90;;;;;;4993299;28;20482;-70
2022/12/28 09:29:11;;;;;;;9.75;4.07;;;7.10;99.90;;;;;;4992045;28;20058;-70
2022/12/28 09:31:38;;;;;;;7.15;3.33;;;7.10;99.90;;;;;;4993286;28;20022;-70
2022/12/28 09:34:11;;;;;;;6.53;3.58;;;7.20;99.90;;;;;;4992668;28;20117;-70
2022/12/28 09:36:43;;;;;;;7.18;3.55;;;7.20;99.90;;;;;;4991947;28;20019;-70
2022/12/28 09:39:12;;;;;;;7.43;3.33;;;7.30;99.90;;;;;;4993273;28;20057;-69
2022/12/28 09:42:00;;;;;;;7.65;3.10;;;7.30;99.90;;;;;;4993166;28;20081;-69
2022/12/28 09:44:30;;;;;;;8.15;4.38;;;7.30;99.90;;;;;;4993468;28;20101;-69
2022/12/28 09:47:22;;;;;;;5.38;3.00;;;7.40;99.90;;;;;;4996741;28;20474;-69
2022/12/28 09:50:16;;;;;;;3.53;2.80;;;7.60;99.90;;;;;;4993134;28;20030;-69
2022/12/28 09:53:14;;;;;;;6.13;3.38;;;7.70;99.90;;;;;;4995453;28;20038;-70
2022/12/28 09:55:47;;;;;;;5.20;2.85;;;7.80;99.90;;;;;;4995449;28;20105;-68
2022/12/28 09:58:15;;;;;;;7.28;2.88;;;7.80;99.90;;;;;;4996220;28;20026;-69
2022/12/28 10:00:44;;;;;;;6.28;3.38;;;7.90;99.90;;;;;;4995720;28;20023;-71
2022/12/28 10:03:22;;;;;;;5.47;3.00;;;8.00;99.90;;;;;;4996528;28;20553;-69
2022/12/28 10:05:49;;;;;;;5.22;3.20;;;8.10;99.90;;;;;;4996386;28;20030;-69
2022/12/28 10:08:19;;;;;;;6.28;2.92;;;8.20;99.90;;;;;;4995110;28;20037;-68
2022/12/28 10:10:46;;;;;;;3.97;2.72;;;8.20;99.90;;;;;;4995125;28;20121;-69
2022/12/28 10:13:19;;;;;;;5.38;2.25;;;8.20;99.90;;;;;;4996303;28;20057;-69
2022/12/28 10:15:45;;;;;;;8.05;2.85;;;8.20;99.90;;;;;;4996248;28;20401;-69
2022/12/28 10:18:14;;;;;;;7.47;3.05;;;8.20;99.90;;;;;;4995781;28;20029;-70
2022/12/28 10:20:42;;;;;;;4.78;2.78;;;8.20;99.90;;;;;;4996309;28;20018;-70
2022/12/28 10:23:16;;;;;;;9.00;3.00;;;8.20;99.90;;;;;;4996371;28;20026;-69
2022/12/28 10:25:42;;;;;;;7.72;2.92;;;8.10;99.90;;;;;;4995001;28;20026;-69
2022/12/28 10:28:10;;;;;;;6.47;3.17;;;8.10;99.90;;;;;;4995488;28;20022;-68
2022/12/28 10:30:48;;;;;;;6.20;2.90;;;8.10;99.90;;;;;;4995377;28;20045;-68
2022/12/28 10:33:18;;;;;;;5.15;3.00;;;8.00;99.90;;;;;;4995935;28;20441;-68
2022/12/28 10:35:53;;;;;;;4.55;2.50;;;8.10;99.90;;;;;;4995807;28;20054;-67
2022/12/28 10:38:23;;;;;;;5.03;2.75;;;8.00;99.90;;;;;;4994650;28;20023;-70
2022/12/28 10:41:02;;;;;;;6.18;2.90;;;8.00;99.90;;;;;;4994497;28;20090;-70
2022/12/28 10:43:31;;;;;;;5.95;2.80;;;8.00;99.90;;;;;;4994547;28;20117;-70
2022/12/28 10:45:58;;;;;;;6.22;3.05;;;8.00;99.90;;;;;;4994745;28;20026;-70
2022/12/28 10:48:37;;;;;;;4.40;2.83;;;8.00;99.90;;;;;;4994938;28;20027;-68
2022/12/28 10:51:14;;;;;;;3.42;2.65;;;8.10;99.90;;;;;;4994520;28;20029;-68
2022/12/28 10:53:42;;;;;;;7.38;3.05;;;8.10;99.90;;;;;;4996146;28;20037;-68
2022/12/28 10:56:31;;;;;;;5.75;2.53;;;8.20;99.90;;;;;;4994734;28;20073;-68
2022/12/28 10:59:11;;;;;;;6.65;2.78;;;8.20;99.90;;;;;;4994476;28;20026;-68
2022/12/28 11:01:38;;;;;;;7.68;2.85;;;8.20;99.90;;;;;;4995185;28;20027;-68
2022/12/28 11:04:07;;;;;;;7.15;2.90;;;8.10;99.90;;;;;;4994105;28;20026;-68
2022/12/28 11:06:59;;;;;;;9.38;2.40;;;8.10;99.90;;;;;;4994122;28;20073;-68
2022/12/28 11:09:27;;;;;;;4.00;2.58;;;8.20;99.90;;;;;;4994569;28;20030;-68
2022/12/28 11:11:55;;;;;;;3.97;2.03;;;8.20;99.90;;;;;;4995291;28;20065;-68
2022/12/28 11:14:28;;;;;;;4.07;2.45;;;8.40;99.90;;;;;;4995049;28;20038;-68
2022/12/28 11:16:53;;;;;;;7.35;2.25;;;8.40;99.90;;;;;;5026354;23;20038;-68
2022/12/28 11:19:20;;;;;;;8.70;3.00;;;8.20;99.90;;;;;;5029932;28;20028;-68
2022/12/28 11:21:46;;;;;;;5.80;2.95;;;8.20;99.90;;;;;;5029885;28;20046;-69
2022/12/28 11:24:14;;;;;;;4.80;2.78;;;8.30;99.90;;;;;;5015050;28;20056;-69
2022/12/28 11:26:46;;;;;;;5.55;2.58;;;8.30;99.90;;;;;;5014389;28;20476;-69
2022/12/28 11:29:14;;;;;;;7.07;3.05;;;8.20;99.90;;;;;;5014224;28;20034;-69
2022/12/28 11:32:01;;;;;;;6.28;2.75;;;8.20;99.90;;;;;;5015145;28;20028;-69
2022/12/28 11:34:28;;;;;;;7.00;3.13;;;8.20;99.90;;;;;;5015077;28;20022;-68
2022/12/28 11:36:54;;;;;;;8.30;3.22;;;8.20;99.90;;;;;;5014171;28;20109;-68
2022/12/28 11:39:26;;;;;;;4.07;2.25;;;8.30;99.90;;;;;;5012988;28;20117;-68
2022/12/28 11:41:56;;;;;;;8.10;2.65;;;8.30;99.90;;;;;;5027288;28;20040;-68
2022/12/28 11:44:29;;;;;;;9.50;3.00;;;8.30;99.90;;;;;;5032913;28;20060;-68
2022/12/28 11:47:51;;;;;;;8.38;2.45;;;8.50;99.90;;;;;;5110834;27;20424;-67
2022/12/28 11:50:40;;;;;;;6.05;2.45;;;8.50;99.90;;;;;;5109676;28;20116;-68
2022/12/28 11:53:19;;;;;;;8.75;2.63;;;8.50;99.90;;;;;;5111164;28;20023;-68
2022/12/28 11:56:15;;;;;;;8.30;2.65;;;8.40;99.90;;;;;;5110025;28;20027;-67
2022/12/28 11:58:42;;;;;;;12.73;2.53;;;8.50;99.90;;;;;;5107943;28;20032;-68
2022/12/28 12:01:27;;;;;;;6.13;2.00;;;8.60;99.90;;;;;;5109863;28;20032;-68
2022/12/28 12:04:10;;;;;;;6.40;2.10;;;8.70;99.90;;;;;;5109456;28;20077;-68
2022/12/28 12:06:46;;;;;;;5.18;2.20;;;8.90;99.90;;;;;;5110701;28;20070;-68
2022/12/28 12:09:24;;;;;;;6.75;2.35;;;8.90;99.90;;;;;;5110781;28;20027;-68
2022/12/28 12:12:15;;;;;;;5.88;2.40;;;9.00;99.90;;;;;;5109508;28;20055;-68
2022/12/28 12:14:51;;;;;;;5.57;2.42;;;9.10;99.90;;;;;;5110019;28;20088;-68
2022/12/28 12:17:22;;;;;;;2.75;1.65;;;9.20;99.90;;;;;;5109610;28;20024;-68
2022/12/28 12:19:52;;;;;;;3.55;2.17;;;9.30;99.90;;;;;;5109141;28;20043;-68
2022/12/28 12:22:31;;;;;;;4.97;2.13;;;9.40;99.90;;;;;;5111177;28;20032;-68
2022/12/28 12:25:14;;;;;;;7.72;2.88;;;9.50;99.90;;;;;;5109264;28;20487;-68
2022/12/28 12:27:43;;;;;;;5.70;1.95;;;9.70;99.90;;;;;;5108955;28;20421;-68
2022/12/28 12:30:13;;;;;;;6.50;2.50;;;9.70;99.90;;;;;;5108983;28;20114;-68
2022/12/28 12:32:50;;;;;;;3.88;2.10;;;9.70;99.90;;;;;;5110274;28;20023;-68
2022/12/28 12:35:19;;;;;;;4.38;2.08;;;9.70;99.90;;;;;;5110303;28;20050;-68
2022/12/28 12:38:19;;;;;;;3.15;1.95;;;9.60;99.90;;;;;;5109857;28;20083;-68
2022/12/28 12:41:04;;;;;;;5.55;2.75;;;9.60;99.90;;;;;;5110386;28;20031;-68
2022/12/28 12:44:01;;;;;;;3.80;2.15;;;9.60;99.90;;;;;;5109985;28;20020;-68
2022/12/28 12:46:57;;;;;;;5.82;2.25;;;9.40;99.90;;;;;;5108585;28;20030;-68
2022/12/28 12:49:31;;;;;;;8.93;2.58;;;9.30;99.90;;;;;;5108596;28;20016;-68
2022/12/28 12:52:33;;;;;;;4.72;1.80;;;9.40;99.90;;;;;;5108627;28;20043;-68
2022/12/28 12:55:26;;;;;;;8.25;2.08;;;9.30;99.90;;;;;;5108566;28;20104;-68
2022/12/28 12:57:59;;;;;;;6.78;2.13;;;9.40;99.90;;;;;;5103901;28;20024;-68
2022/12/28 13:00:52;;;;;;;6.00;1.90;;;9.50;99.90;;;;;;5095933;28;20020;-68
2022/12/28 13:03:28;;;;;;;3.67;1.90;;;9.50;99.90;;;;;;5095374;28;20025;-68
2022/12/28 13:05:57;;;;;;;2.85;1.23;;;9.60;99.90;;;;;;5095967;28;20028;-68
2022/12/28 13:08:36;;;;;;;5.15;1.20;;;9.70;99.90;;;;;;5095950;28;20043;-68
2022/12/28 13:11:02;;;;;;;3.20;1.60;;;9.70;99.90;;;;;;5094782;28;20157;-68
2022/12/28 13:13:33;;;;;;;7.85;1.20;;;9.70;99.90;;;;;;5094575;28;20020;-68
2022/12/28 13:16:07;;;;;;;5.13;1.42;;;9.80;99.90;;;;;;5095588;28;20097;-68
2022/12/28 13:18:33;;;;;;;3.88;1.65;;;9.80;99.90;;;;;;5094524;28;20036;-68
2022/12/28 13:21:01;;;;;;;1.75;1.02;;;9.90;99.90;;;;;;5094536;28;20031;-68
2022/12/28 13:23:30;;;;;;;8.25;1.42;;;10.00;99.90;;;;;;5094330;28;20122;-67
2022/12/28 13:25:59;;;;;;;4.82;1.70;;;10.00;99.90;;;;;;5095720;28;20080;-67
2022/12/28 13:28:35;;;;;;;2.67;0.95;;;10.00;99.90;;;;;;5094380;28;20091;-69
2022/12/28 13:31:17;;;;;;;1.60;1.17;;;9.90;99.90;;;;;;5095264;28;20020;-68
2022/12/28 13:33:53;;;;;;;;;;;9.90;99.90;;;;;;5094960;28;20028;-68